createdAt,value
2017-03-13T22:38:41.350Z,1024
2017-03-13T22:39:41.314Z,1023.99
2017-03-13T22:40:41.285Z,1024
2017-03-13T22:41:41.254Z,1024.06
2017-03-13T22:42:41.223Z,1024.01
2017-03-13T22:43:41.198Z,1024.01
2017-03-13T22:44:41.168Z,1024
2017-03-13T22:45:41.141Z,1024
2017-03-13T22:46:41.117Z,1023.97
2017-03-13T22:47:41.086Z,1024.03
2017-03-13T22:48:41.058Z,1024.01
2017-03-13T22:49:41.036Z,1024
2017-03-13T22:50:41.009Z,1023.99
2017-03-13T22:51:40.984Z,1024.02
2017-03-13T22:52:40.963Z,1024
2017-03-13T22:53:40.933Z,1024.03
2017-03-13T22:54:40.909Z,1024.01
2017-03-13T22:55:40.887Z,1023.99
2017-03-13T22:56:40.859Z,1024.01
2017-03-13T22:57:40.837Z,1024.06
2017-03-13T22:58:40.814Z,1024.01
2017-03-13T22:59:40.788Z,1024.03
2017-03-13T23:00:40.763Z,1024
2017-03-13T23:01:40.740Z,1024.01
2017-03-13T23:02:40.727Z,1023.95
2017-03-13T23:03:40.694Z,1023.95
2017-03-13T23:04:40.667Z,1023.98
2017-03-13T23:05:40.649Z,1024.03
2017-03-13T23:06:40.622Z,1024.01
2017-03-13T23:07:40.597Z,1024.05
2017-03-13T23:08:40.573Z,1024.03
2017-03-13T23:09:40.602Z,1024.05
2017-03-13T23:10:40.529Z,1024.05
2017-03-13T23:11:40.503Z,1024.05
2017-03-13T23:12:40.681Z,1024
2017-03-13T23:13:40.455Z,1024.04
2017-03-13T23:14:40.483Z,1024.03
2017-03-13T23:15:40.409Z,1024.06
2017-03-13T23:16:40.390Z,1024.02
2017-03-13T23:17:40.363Z,1024.05
2017-03-13T23:18:40.337Z,1024.08
2017-03-13T23:19:40.315Z,1024.07
2017-03-13T23:20:40.292Z,1024.08
2017-03-13T23:21:40.267Z,1024.11
2017-03-13T23:22:40.244Z,1024.11
2017-03-13T23:23:40.220Z,1024.18
2017-03-13T23:24:40.198Z,1024.14
2017-03-13T23:25:40.173Z,1024.18
2017-03-13T23:26:40.151Z,1024.19
2017-03-13T23:27:40.128Z,1024.26
2017-03-13T23:28:40.105Z,1024.2
2017-03-13T23:29:40.083Z,1024.22
2017-03-13T23:30:40.056Z,1024.24
2017-03-13T23:31:40.033Z,1024.2
2017-03-13T23:32:40.007Z,1024.18
2017-03-13T23:33:39.994Z,1024.15
2017-03-13T23:34:39.968Z,1024.16
2017-03-13T23:35:39.944Z,1024.17
2017-03-13T23:36:39.915Z,1024.22
2017-03-13T23:37:39.892Z,1024.21
2017-03-13T23:38:39.871Z,1024.2
2017-03-13T23:39:39.848Z,1024.16
2017-03-13T23:40:39.822Z,1024.2
2017-03-13T23:41:39.797Z,1024.19
2017-03-13T23:42:39.774Z,1024.2
2017-03-13T23:43:39.749Z,1024.22
2017-03-13T23:44:39.727Z,1024.21
2017-03-13T23:45:39.704Z,1024.29
2017-03-13T23:46:39.678Z,1024.29
2017-03-13T23:47:39.658Z,1024.25
2017-03-13T23:48:39.633Z,1024.29
2017-03-13T23:49:39.609Z,1024.22
2017-03-13T23:50:39.585Z,1024.27
2017-03-13T23:51:39.563Z,1024.25
2017-03-13T23:52:39.537Z,1024.25
2017-03-13T23:53:39.515Z,1024.28
2017-03-13T23:54:39.491Z,1024.24
2017-03-13T23:55:39.469Z,1024.28
2017-03-13T23:56:39.443Z,1024.25
2017-03-13T23:57:39.421Z,1024.27
2017-03-13T23:58:39.448Z,1024.22
2017-03-13T23:59:39.373Z,1024.22
